Time;durP1;ratioP1;P1;durP2;ratioP2;P2;SDS_P1;SDS_P2;PMS_P1;PMS_P2;Temp;Humidity;BMP_temperature;BMP_pressure;BME280_temperature;BME280_humidity;BME280_pressure;Samples;Min_cycle;Max_cycle;Signal;HPM_P1;HPM_P2
2021/03/30 00:02:25;;;;;;;;;;;;;;;2.14;69.83;97142.56;1777264;80;20168;-63
2021/03/30 00:04:52;;;;;;;;;;;;;;;2.19;69.41;97134.93;1785527;80;20170;-63
2021/03/30 00:07:20;;;;;;;;;;;;;;;2.26;68.94;97141.73;1785414;80;20447;-63
2021/03/30 00:09:47;;;;;;;;;;;;;;;2.33;68.56;97137.23;1785568;80;20412;-63
2021/03/30 00:12:15;;;;;;;;;;;;;;;2.36;68.33;97131.26;1785312;80;20159;-63
2021/03/30 00:14:42;;;;;;;;;;;;;;;2.23;68.85;97131.20;1785723;80;20151;-63
2021/03/30 00:17:10;;;;;;;;;;;;;;;2.23;68.94;97132.94;1785676;80;20146;-63
2021/03/30 00:19:37;;;;;;;;;;;;;;;2.27;68.77;97121.39;1785475;80;20170;-63
2021/03/30 00:22:05;;;;;;;;;;;;;;;2.33;69.23;97121.61;1785488;80;20147;-63
2021/03/30 00:24:33;;;;;;;;;;;;;;;2.31;69.05;97112.84;1785653;80;20134;-63
2021/03/30 00:27:00;;;;;;;;;;;;;;;2.31;69.16;97115.45;1785363;80;20159;-63
2021/03/30 00:29:27;;;;;;;;;;;;;;;2.36;68.88;97111.30;1785739;80;20154;-63
2021/03/30 00:31:54;;;;;;;;;;;;;;;2.45;69.20;97112.08;1785383;80;20154;-63
2021/03/30 00:34:21;;;;;;;;;;;;;;;2.54;68.70;97106.30;1785425;80;20150;-63
2021/03/30 00:36:49;;;;;;;;;;;;;;;2.53;69.22;97108.45;1785312;80;20182;-63
2021/03/30 00:39:17;;;;;;;;;;;;;;;2.53;69.66;97105.84;1786047;80;20131;-63
2021/03/30 00:41:44;;;;;;;;;;;;;;;2.55;70.02;97096.37;1785339;80;20157;-63
2021/03/30 00:44:13;;;;;;;;;;;;;;;2.58;69.14;97090.84;1785570;80;20158;-63
2021/03/30 00:46:43;;;;;;;;;;;;;;;2.68;68.94;97094.67;1785579;80;20134;-63
2021/03/30 00:49:13;;;;;;;;;;;;;;;2.83;68.59;97096.06;1785749;80;20130;-63
2021/03/30 00:51:42;;;;;;;;;;;;;;;2.86;68.36;97087.92;1785374;80;20151;-63
2021/03/30 00:54:28;;;;;;;;;;;;;;;2.76;68.91;97091.03;1785522;80;20143;-63
2021/03/30 00:56:57;;;;;;;;;;;;;;;2.69;69.65;97090.34;1784270;80;20147;-63
2021/03/30 00:59:25;;;;;;;;;;;;;;;2.62;70.50;97091.86;1785643;80;20131;-63
2021/03/30 01:01:52;;;;;;;;;;;;;;;2.63;69.36;97091.44;1785610;80;20139;-63
2021/03/30 01:04:20;;;;;;;;;;;;;;;2.64;69.18;97090.59;1785431;80;20147;-63
2021/03/30 01:06:47;;;;;;;;;;;;;;;2.66;68.80;97091.54;1785465;80;20154;-63
2021/03/30 01:09:28;;;;;;;;;;;;;;;2.67;69.02;97087.70;1785466;80;20154;-63
2021/03/30 01:12:26;;;;;;;;;;;;;;;2.70;68.73;97086.92;1785371;80;20429;-63
2021/03/30 01:14:57;;;;;;;;;;;;;;;2.73;69.95;97092.23;1785819;80;20157;-63
2021/03/30 01:17:31;;;;;;;;;;;;;;;2.70;71.49;97088.23;1771448;80;20424;-63
2021/03/30 01:20:32;;;;;;;;;;;;;;;2.72;70.61;97082.63;1785483;80;20195;-63
2021/03/30 01:23:15;;;;;;;;;;;;;;;2.69;70.76;97083.41;1785830;80;20455;-63
2021/03/30 01:25:46;;;;;;;;;;;;;;;2.66;71.31;97086.33;1774044;80;20147;-63
2021/03/30 01:28:35;;;;;;;;;;;;;;;2.76;69.85;97085.82;1785635;80;20439;-63
2021/03/30 01:31:03;;;;;;;;;;;;;;;2.80;69.51;97080.78;1785250;80;20431;-63
2021/03/30 01:33:33;;;;;;;;;;;;;;;2.80;69.71;97080.78;1785598;80;20463;-63
2021/03/30 01:36:02;;;;;;;;;;;;;;;2.76;70.27;97083.22;1785592;80;20423;-63
2021/03/30 01:38:30;;;;;;;;;;;;;;;2.80;69.54;97083.80;1759895;80;20459;-63
2021/03/30 01:40:57;;;;;;;;;;;;;;;2.81;69.82;97090.78;1785454;80;20170;-63
2021/03/30 01:43:25;;;;;;;;;;;;;;;2.77;71.39;97087.19;1785652;80;20452;-63
2021/03/30 01:45:54;;;;;;;;;;;;;;;2.76;70.22;97083.22;1785888;80;20135;-63
2021/03/30 01:48:23;;;;;;;;;;;;;;;2.75;71.49;97087.97;1785506;80;20166;-63
2021/03/30 01:50:53;;;;;;;;;;;;;;;2.75;70.21;97083.64;1785796;80;20427;-63
2021/03/30 01:53:23;;;;;;;;;;;;;;;2.73;70.96;97076.17;1785704;80;20171;-63
2021/03/30 01:55:53;;;;;;;;;;;;;;;2.73;70.80;97073.57;1785432;80;20134;-63
2021/03/30 01:58:21;;;;;;;;;;;;;;;2.81;70.20;97067.32;1785780;80;20135;-63
2021/03/30 02:00:50;;;;;;;;;;;;;;;2.87;70.05;97066.22;1785494;80;20139;-63
2021/03/30 02:03:19;;;;;;;;;;;;;;;2.94;69.61;97064.30;1785552;80;20444;-63
2021/03/30 02:05:47;;;;;;;;;;;;;;;3.00;69.90;97060.62;1785556;80;20162;-63
2021/03/30 02:08:16;;;;;;;;;;;;;;;3.01;70.22;97057.59;1785755;80;20150;-63
2021/03/30 02:10:49;;;;;;;;;;;;;;;3.00;70.30;97068.44;1785602;80;20427;-64
2021/03/30 02:13:24;;;;;;;;;;;;;;;2.94;70.33;97066.91;1785830;80;20169;-63
2021/03/30 02:15:55;;;;;;;;;;;;;;;2.90;70.05;97072.87;1785435;80;20182;-63
2021/03/30 02:18:24;;;;;;;;;;;;;;;2.91;69.67;97073.75;1785448;80;20146;-63
2021/03/30 02:20:57;;;;;;;;;;;;;;;2.91;69.75;97065.92;1785762;80;20147;-63
2021/03/30 02:23:27;;;;;;;;;;;;;;;2.89;69.88;97071.50;1785216;80;20150;-63
2021/03/30 02:25:56;;;;;;;;;;;;;;;2.86;70.35;97067.48;1785435;80;20432;-63
2021/03/30 02:28:28;;;;;;;;;;;;;;;2.80;70.50;97069.47;1785643;80;20428;-63
2021/03/30 02:30:55;;;;;;;;;;;;;;;2.76;70.23;97064.55;1785576;80;20150;-63
2021/03/30 02:33:23;;;;;;;;;;;;;;;2.74;70.89;97057.51;1785540;80;20166;-63
2021/03/30 02:35:54;;;;;;;;;;;;;;;2.67;71.97;97066.85;1785752;80;20141;-63
2021/03/30 02:38:23;;;;;;;;;;;;;;;2.60;71.63;97062.25;1785554;80;20166;-63
2021/03/30 02:40:52;;;;;;;;;;;;;;;2.60;71.29;97059.64;1785566;80;20134;-63
2021/03/30 02:43:20;;;;;;;;;;;;;;;2.61;70.79;97062.70;1785325;80;20162;-63
2021/03/30 02:45:50;;;;;;;;;;;;;;;2.59;70.61;97058.73;1785600;80;20420;-63
2021/03/30 02:48:19;;;;;;;;;;;;;;;2.64;70.65;97052.81;1785922;80;20138;-63
2021/03/30 02:50:49;;;;;;;;;;;;;;;2.64;70.87;97057.59;1785718;80;20147;-63
2021/03/30 02:53:17;;;;;;;;;;;;;;;2.58;71.85;97071.30;1785697;80;20420;-63
2021/03/30 02:55:45;;;;;;;;;;;;;;;2.51;72.36;97061.48;1785494;80;20146;-63
2021/03/30 02:58:13;;;;;;;;;;;;;;;2.53;72.32;97071.55;1785579;80;20153;-63
2021/03/30 03:00:41;;;;;;;;;;;;;;;2.51;73.11;97074.51;1785643;80;20150;-63
2021/03/30 03:03:11;;;;;;;;;;;;;;;2.54;72.52;97068.09;1785260;80;20174;-63
2021/03/30 03:05:39;;;;;;;;;;;;;;;2.51;72.59;97078.84;1777230;81;20155;-63
2021/03/30 03:08:07;;;;;;;;;;;;;;;2.53;72.38;97078.06;1777004;81;20468;-63
2021/03/30 03:10:36;;;;;;;;;;;;;;;2.52;72.13;97072.78;1776980;81;20421;-63
2021/03/30 03:13:06;;;;;;;;;;;;;;;2.53;72.12;97072.85;1776848;81;20143;-63
2021/03/30 03:15:34;;;;;;;;;;;;;;;2.51;72.00;97068.00;1777060;81;20421;-63
2021/03/30 03:18:02;;;;;;;;;;;;;;;2.51;72.06;97066.69;1777055;81;20416;-63
2021/03/30 03:20:30;;;;;;;;;;;;;;;2.57;71.92;97070.84;1777412;81;20245;-63
2021/03/30 03:23:00;;;;;;;;;;;;;;;2.53;72.50;97059.83;1757831;81;20159;-63
2021/03/30 03:25:27;;;;;;;;;;;;;;;2.55;72.33;97066.41;1777218;81;20162;-63
2021/03/30 03:27:55;;;;;;;;;;;;;;;2.45;72.86;97074.30;1776758;81;20143;-63
2021/03/30 03:30:26;;;;;;;;;;;;;;;2.45;73.24;97074.72;1776983;81;20448;-63
2021/03/30 03:32:54;;;;;;;;;;;;;;;2.52;72.98;97073.70;1777164;81;20143;-63
2021/03/30 03:35:21;;;;;;;;;;;;;;;2.51;72.82;97073.20;1757893;81;20158;-63
2021/03/30 03:37:48;;;;;;;;;;;;;;;2.57;72.53;97075.14;1777347;81;20234;-63
2021/03/30 03:40:17;;;;;;;;;;;;;;;2.55;72.77;97075.11;1777114;81;20138;-63
2021/03/30 03:42:44;;;;;;;;;;;;;;;2.50;72.88;97074.05;1776860;81;20135;-63
2021/03/30 03:45:12;;;;;;;;;;;;;;;2.54;72.39;97072.01;1777010;81;20143;-63
2021/03/30 03:47:40;;;;;;;;;;;;;;;2.50;74.04;97071.87;1777080;81;20150;-62
2021/03/30 03:50:08;;;;;;;;;;;;;;;2.57;73.88;97077.75;1777064;81;20146;-63
2021/03/30 03:52:38;;;;;;;;;;;;;;;2.57;72.55;97079.05;1776976;81;20150;-63
2021/03/30 03:55:07;;;;;;;;;;;;;;;2.53;73.20;97073.28;1777090;81;20134;-63
2021/03/30 03:57:44;;;;;;;;;;;;;;;2.45;74.59;97082.12;1757513;81;20167;-63
2021/03/30 04:00:13;;;;;;;;;;;;;;;2.46;74.71;97077.36;1776841;81;20163;-63
2021/03/30 04:03:01;;;;;;;;;;;;;;;2.54;73.83;97076.34;1777264;81;20150;-63
2021/03/30 04:05:32;;;;;;;;;;;;;;;2.63;73.35;97079.71;1777077;80;20179;-63
2021/03/30 04:08:15;;;;;;;;;;;;;;;2.72;72.89;97076.11;1776472;80;20186;-63
2021/03/30 04:10:48;;;;;;;;;;;;;;;2.80;72.40;97079.48;1776884;80;20147;-63
2021/03/30 04:13:20;;;;;;;;;;;;;;;2.88;72.49;97077.13;1776893;81;20167;-63
2021/03/30 04:15:48;;;;;;;;;;;;;;;2.94;71.90;97077.34;1777123;81;20150;-63
2021/03/30 04:18:15;;;;;;;;;;;;;;;2.97;71.62;97070.95;1776944;81;20155;-63
2021/03/30 04:20:43;;;;;;;;;;;;;;;2.98;71.83;97066.61;1777050;81;20146;-63
2021/03/30 04:23:12;;;;;;;;;;;;;;;2.93;72.27;97065.14;1776992;81;20147;-63
2021/03/30 04:25:40;;;;;;;;;;;;;;;2.87;73.65;97073.16;1777162;81;20162;-63
2021/03/30 04:28:08;;;;;;;;;;;;;;;2.87;74.35;97068.83;1776980;81;20424;-63
2021/03/30 04:30:35;;;;;;;;;;;;;;;2.86;74.12;97074.88;1777036;81;20452;-63
2021/03/30 04:33:04;;;;;;;;;;;;;;;2.85;73.14;97060.48;1777077;81;20420;-63
2021/03/30 04:35:31;;;;;;;;;;;;;;;2.86;72.71;97069.67;1777080;81;20198;-63
2021/03/30 04:37:58;;;;;;;;;;;;;;;2.92;72.38;97068.56;1777218;81;20516;-63
2021/03/30 04:40:26;;;;;;;;;;;;;;;2.94;72.86;97073.42;1776979;81;20142;-63
2021/03/30 04:42:54;;;;;;;;;;;;;;;2.97;73.69;97065.73;1776675;81;20147;-63
2021/03/30 04:45:22;;;;;;;;;;;;;;;3.01;73.83;97069.31;1776936;81;20143;-63
2021/03/30 04:47:49;;;;;;;;;;;;;;;3.03;74.72;97071.14;1776469;81;20187;-63
2021/03/30 04:50:17;;;;;;;;;;;;;;;3.04;74.54;97068.11;1751661;81;20124;-64
2021/03/30 04:52:44;;;;;;;;;;;;;;;3.10;74.27;97072.64;1751234;81;20232;-67
2021/03/30 04:55:12;;;;;;;;;;;;;;;3.13;74.56;97065.83;1751485;82;20227;-62
2021/03/30 04:57:39;;;;;;;;;;;;;;;3.11;74.06;97071.41;1751146;81;20481;-64
2021/03/30 05:00:07;;;;;;;;;;;;;;;3.16;73.85;97077.66;1751457;82;20179;-61
2021/03/30 05:02:35;;;;;;;;;;;;;;;3.21;74.01;97080.43;1751588;81;20137;-63
2021/03/30 05:05:03;;;;;;;;;;;;;;;3.21;73.54;97076.52;1753022;81;20163;-60
2021/03/30 05:07:30;;;;;;;;;;;;;;;3.27;73.38;97071.49;1754469;81;20232;-62
2021/03/30 05:09:58;;;;;;;;;;;;;;;3.31;73.96;97067.28;1754294;82;20227;-60
2021/03/30 05:12:25;;;;;;;;;;;;;;;3.39;73.29;97068.41;1754123;82;20226;-60
2021/03/30 05:14:52;;;;;;;;;;;;;;;3.48;73.58;97068.72;1754355;81;20489;-60
2021/03/30 05:17:19;;;;;;;;;;;;;;;3.52;73.63;97071.88;1754537;81;20179;-60
2021/03/30 05:19:46;;;;;;;;;;;;;;;3.60;73.04;97068.21;1754336;81;20504;-60
2021/03/30 05:22:14;;;;;;;;;;;;;;;3.64;72.64;97068.79;1754570;81;20131;-59
2021/03/30 05:24:42;;;;;;;;;;;;;;;3.68;72.32;97071.55;1754185;81;20128;-60
2021/03/30 05:27:09;;;;;;;;;;;;;;;3.73;71.92;97074.31;1754115;81;20255;-60
2021/03/30 05:29:43;;;;;;;;;;;;;;;3.76;71.39;97069.19;1754287;81;20231;-60
2021/03/30 05:32:14;;;;;;;;;;;;;;;3.79;70.56;97080.14;1754212;81;20227;-61
2021/03/30 05:34:43;;;;;;;;;;;;;;;3.84;70.36;97082.05;1754288;81;20226;-60
2021/03/30 05:37:11;;;;;;;;;;;;;;;3.84;69.92;97075.52;1754307;81;20128;-61
2021/03/30 05:39:38;;;;;;;;;;;;;;;3.89;69.95;97075.24;1737417;82;20148;-60
2021/03/30 05:42:06;;;;;;;;;;;;;;;3.96;69.42;97076.76;1754515;81;20500;-61
2021/03/30 05:44:34;;;;;;;;;;;;;;;4.00;69.02;97077.30;1754159;82;20529;-60
2021/03/30 05:47:09;;;;;;;;;;;;;;;4.06;68.95;97074.89;1754065;82;20508;-59
2021/03/30 05:49:39;;;;;;;;;;;;;;;4.11;68.80;97075.92;1754155;81;20500;-61
2021/03/30 05:52:17;;;;;;;;;;;;;;;4.19;68.53;97076.14;1754314;81;20223;-61
2021/03/30 05:54:42;;;;;;;;;;;;;;;4.24;68.53;97078.48;1754118;81;20505;-60
2021/03/30 05:57:12;;;;;;;;;;;;;;;4.29;68.06;97076.45;1754397;82;20226;-61
2021/03/30 05:59:42;;;;;;;;;;;;;;;4.36;67.99;97077.93;1754287;81;20152;-63
2021/03/30 06:02:22;;;;;;;;;;;;;;;4.41;67.67;97080.25;1753409;81;20253;-60
2021/03/30 06:04:50;;;;;;;;;;;;;;;4.46;67.49;97081.27;1747420;79;20181;-62
2021/03/30 06:07:17;;;;;;;;;;;;;;;4.55;67.47;97088.08;1770293;79;20161;-60
2021/03/30 06:09:46;;;;;;;;;;;;;;;4.63;67.13;97093.10;1793876;79;20144;-63
2021/03/30 06:12:16;;;;;;;;;;;;;;;4.68;67.59;97094.55;1811900;79;20166;-61
2021/03/30 06:14:45;;;;;;;;;;;;;;;4.73;67.21;97093.83;1796541;79;20133;-62
2021/03/30 06:17:14;;;;;;;;;;;;;;;4.80;66.89;97085.74;1767267;81;20247;-59
2021/03/30 06:19:50;;;;;;;;;;;;;;;4.89;66.92;97092.94;1767039;81;20148;-60
2021/03/30 06:22:18;;;;;;;;;;;;;;;4.97;66.83;97091.02;1766895;81;20136;-64
2021/03/30 06:24:45;;;;;;;;;;;;;;;5.04;66.79;97089.86;1766999;81;20132;-59
2021/03/30 06:27:25;;;;;;;;;;;;;;;5.06;65.08;97086.44;1766977;81;20149;-61
2021/03/30 06:29:54;;;;;;;;;;;;;;;5.13;65.94;97081.84;1767053;81;20426;-60
2021/03/30 06:32:23;;;;;;;;;;;;;;;5.24;65.68;97091.30;1767308;81;20136;-60
2021/03/30 06:34:56;;;;;;;;;;;;;;;5.36;65.26;97086.78;1766903;81;20133;-63
2021/03/30 06:37:33;;;;;;;;;;;;;;;5.50;64.93;97085.84;1766977;81;20133;-61
2021/03/30 06:40:04;;;;;;;;;;;;;;;5.67;64.98;97087.14;1767053;81;20426;-61
2021/03/30 06:42:42;;;;;;;;;;;;;;;5.81;63.67;97085.72;1766947;81;20406;-62
2021/03/30 06:45:20;;;;;;;;;;;;;;;5.96;63.03;97078.69;1766998;81;20137;-60
2021/03/30 06:47:51;;;;;;;;;;;;;;;6.09;61.84;97085.09;1767001;81;20133;-60
2021/03/30 06:50:25;;;;;;;;;;;;;;;6.22;60.89;97079.30;1749873;81;20422;-59
2021/03/30 06:52:55;;;;;;;;;;;;;;;6.39;60.17;97086.62;1767028;81;20140;-61
2021/03/30 06:55:29;;;;;;;;;;;;;;;6.50;58.53;97088.64;1766640;81;20418;-60
2021/03/30 06:58:01;;;;;;;;;;;;;;;6.59;59.73;97087.93;1767060;81;20152;-60
2021/03/30 07:00:31;;;;;;;;;;;;;;;6.72;59.73;97082.51;1766986;81;20172;-59
2021/03/30 07:03:01;;;;;;;;;;;;;;;6.80;58.78;97090.09;1766895;81;20209;-61
2021/03/30 07:05:39;;;;;;;;;;;;;;;6.90;57.61;97084.61;1766878;81;20163;-61
2021/03/30 07:08:13;;;;;;;;;;;;;;;7.02;58.08;97094.47;1767156;81;20184;-61
2021/03/30 07:10:46;;;;;;;;;;;;;;;7.04;57.32;97098.02;1760586;81;20120;-61
2021/03/30 07:13:16;;;;;;;;;;;;;;;7.03;57.05;97096.22;1766906;81;20137;-60
2021/03/30 07:15:43;;;;;;;;;;;;;;;7.02;56.74;97094.03;1767141;81;20410;-61
2021/03/30 07:18:43;;;;;;;;;;;;;;;7.12;57.41;97099.04;1766762;81;20156;-60
2021/03/30 07:21:20;;;;;;;;;;;;;;;7.18;56.62;97107.02;1766945;81;20441;-60
2021/03/30 07:23:54;;;;;;;;;;;;;;;7.33;57.15;97098.14;1767180;81;20136;-61
2021/03/30 07:26:25;;;;;;;;;;;;;;;7.47;57.40;97093.55;1767164;81;20140;-61
2021/03/30 07:29:08;;;;;;;;;;;;;;;7.59;57.11;97087.20;1765533;81;20132;-61
2021/03/30 07:32:08;;;;;;;;;;;;;;;7.70;55.70;97085.62;1766665;81;20152;-60
2021/03/30 07:34:51;;;;;;;;;;;;;;;7.90;55.56;97086.38;1767242;81;20160;-59
2021/03/30 07:37:31;;;;;;;;;;;;;;;8.15;55.64;97088.95;1767026;81;20469;-61
2021/03/30 07:39:59;;;;;;;;;;;;;;;8.26;55.30;97091.73;1760120;81;20128;-60
2021/03/30 07:42:28;;;;;;;;;;;;;;;8.37;54.87;97088.84;1766887;81;20139;-61
2021/03/30 07:44:56;;;;;;;;;;;;;;;8.45;53.57;97092.05;1766842;81;20421;-60
2021/03/30 07:47:24;;;;;;;;;;;;;;;8.56;52.19;97093.50;1766899;81;20152;-62
2021/03/30 07:49:53;;;;;;;;;;;;;;;8.62;49.70;97098.86;1767172;81;20121;-61
2021/03/30 07:52:24;;;;;;;;;;;;;;;8.67;49.45;97105.51;1766817;81;20125;-62
2021/03/30 07:55:14;;;;;;;;;;;;;;;8.70;49.06;97096.33;1766953;81;20426;-60
2021/03/30 07:58:02;;;;;;;;;;;;;;;8.78;49.33;97092.04;1759365;81;20156;-63
2021/03/30 08:00:36;;;;;;;;;;;;;;;8.91;49.51;97090.44;1766758;81;20180;-62
2021/03/30 08:03:13;;;;;;;;;;;;;;;9.04;49.47;97091.02;1766949;81;20402;-61
2021/03/30 08:05:40;;;;;;;;;;;;;;;9.10;48.46;97091.11;1768600;81;20263;-62
2021/03/30 08:08:23;;;;;;;;;;;;;;;9.18;47.64;97100.84;1746598;81;20128;-62
2021/03/30 08:10:54;;;;;;;;;;;;;;;9.19;47.63;97098.66;1770104;80;20175;-61
2021/03/30 08:13:29;;;;;;;;;;;;;;;9.30;47.35;97095.28;1770229;81;20231;-61
2021/03/30 08:15:59;;;;;;;;;;;;;;;9.38;45.17;97094.03;1770156;81;20417;-63
2021/03/30 08:18:33;;;;;;;;;;;;;;;9.48;47.17;97093.70;1770407;81;20121;-64
2021/03/30 08:21:07;;;;;;;;;;;;;;;9.64;46.02;97089.00;1770024;80;20168;-63
2021/03/30 08:24:02;;;;;;;;;;;;;;;9.80;45.37;97078.59;1770355;81;20131;-62
2021/03/30 08:26:35;;;;;;;;;;;;;;;9.90;45.60;97084.38;1770182;81;20160;-61
2021/03/30 08:29:14;;;;;;;;;;;;;;;10.05;43.41;97079.66;1769903;81;20147;-62
2021/03/30 08:31:51;;;;;;;;;;;;;;;10.05;42.57;97082.30;1770160;81;20121;-62
2021/03/30 08:34:28;;;;;;;;;;;;;;;10.18;42.26;97077.58;1770037;81;20132;-62
2021/03/30 08:36:58;;;;;;;;;;;;;;;10.21;41.56;97076.72;1755050;80;20170;-60
2021/03/30 08:39:29;;;;;;;;;;;;;;;10.24;40.71;97076.29;1785578;80;20131;-62
2021/03/30 08:42:01;;;;;;;;;;;;;;;10.39;41.79;97071.14;1785271;80;20149;-58
2021/03/30 08:44:40;;;;;;;;;;;;;;;10.50;41.23;97077.78;1785330;80;20142;-60
2021/03/30 08:47:26;;;;;;;;;;;;;;;10.64;40.98;97077.00;1783042;80;20173;-61
2021/03/30 08:50:27;;;;;;;;;;;;;;;10.75;40.52;97073.95;1784976;80;20428;-60
2021/03/30 08:52:57;;;;;;;;;;;;;;;10.97;40.56;97074.48;1785985;80;20142;-62
2021/03/30 08:55:34;;;;;;;;;;;;;;;11.16;39.65;97066.20;1785113;80;20496;-60
2021/03/30 08:58:02;;;;;;;;;;;;;;;11.31;40.00;97061.36;1785458;80;20188;-59
2021/03/30 09:00:29;;;;;;;;;;;;;;;11.46;37.98;97063.16;1785627;80;20166;-62
2021/03/30 09:03:02;;;;;;;;;;;;;;;11.64;39.54;97059.23;1785316;80;20416;-60
2021/03/30 09:05:35;;;;;;;;;;;;;;;11.81;38.78;97055.25;1782796;80;20182;-59
2021/03/30 09:08:03;;;;;;;;;;;;;;;11.87;37.79;97057.06;1777203;81;20163;-60
2021/03/30 09:10:31;;;;;;;;;;;;;;;11.83;37.53;97051.29;1776938;81;20436;-59
2021/03/30 09:13:16;;;;;;;;;;;;;;;11.82;37.97;97052.19;1777176;81;20174;-60
2021/03/30 09:15:44;;;;;;;;;;;;;;;11.78;37.67;97047.77;1776817;81;20465;-60
2021/03/30 09:18:22;;;;;;;;;;;;;;;11.98;37.67;97039.86;1776914;81;20150;-60
2021/03/30 09:21:13;;;;;;;;;;;;;;;12.04;37.02;97040.71;1777261;81;20142;-60
2021/03/30 09:23:42;;;;;;;;;;;;;;;12.28;38.14;97031.87;1777031;81;20146;-59
2021/03/30 09:26:11;;;;;;;;;;;;;;;12.74;38.84;97033.03;1776896;81;20178;-60
2021/03/30 09:28:40;;;;;;;;;;;;;;;12.96;38.33;97036.48;1776770;81;20135;-60
2021/03/30 09:31:07;;;;;;;;;;;;;;;12.96;36.93;97027.66;1777165;81;20154;-59
2021/03/30 09:33:35;;;;;;;;;;;;;;;12.62;37.44;97037.05;1757759;81;20154;-60
2021/03/30 09:36:11;;;;;;;;;;;;;;;12.32;37.11;97028.75;1776960;81;20147;-59
2021/03/30 09:38:53;;;;;;;;;;;;;;;12.30;39.04;97034.52;1776892;81;20440;-60
2021/03/30 09:41:35;;;;;;;;;;;;;;;12.60;39.06;97032.64;1777158;81;20135;-60
2021/03/30 09:44:03;;;;;;;;;;;;;;;12.82;37.05;97034.78;1776679;81;20313;-60
2021/03/30 09:46:33;;;;;;;;;;;;;;;12.68;37.68;97033.52;1775841;80;20142;-59
2021/03/30 09:49:00;;;;;;;;;;;;;;;12.65;37.40;97034.83;1777187;81;20478;-60
2021/03/30 09:51:28;;;;;;;;;;;;;;;12.70;36.55;97038.34;1777026;81;20146;-59
2021/03/30 09:53:55;;;;;;;;;;;;;;;12.87;38.28;97033.86;1777114;81;20424;-59
2021/03/30 09:56:25;;;;;;;;;;;;;;;12.91;36.20;97030.77;1777303;81;20142;-60
2021/03/30 09:58:55;;;;;;;;;;;;;;;12.98;37.23;97034.70;1776909;81;20146;-61
2021/03/30 10:01:24;;;;;;;;;;;;;;;13.22;36.83;97030.15;1777105;81;20135;-59
2021/03/30 10:03:54;;;;;;;;;;;;;;;13.41;36.18;97027.86;1777164;81;20424;-59
2021/03/30 10:06:21;;;;;;;;;;;;;;;13.53;35.32;97024.25;1756722;81;20163;-60
2021/03/30 10:08:49;;;;;;;;;;;;;;;13.67;34.42;97025.91;1782542;81;20443;-59
2021/03/30 10:11:27;;;;;;;;;;;;;;;13.67;35.52;97010.00;1782589;81;20432;-60
2021/03/30 10:13:54;;;;;;;;;;;;;;;13.81;34.44;97013.42;1782546;81;20135;-62
2021/03/30 10:16:22;;;;;;;;;;;;;;;14.03;35.39;97010.11;1754822;81;20139;-60
2021/03/30 10:18:50;;;;;;;;;;;;;;;14.26;35.13;96999.25;1754870;81;20163;-60
2021/03/30 10:21:18;;;;;;;;;;;;;;;14.51;34.57;97001.19;1782461;81;20163;-60
2021/03/30 10:23:49;;;;;;;;;;;;;;;14.71;35.57;96994.34;1782673;80;20155;-59
2021/03/30 10:26:25;;;;;;;;;;;;;;;15.02;34.65;97000.59;1781455;81;20154;-60
2021/03/30 10:28:56;;;;;;;;;;;;;;;15.10;33.82;96994.73;1782925;81;20428;-60
2021/03/30 10:31:35;;;;;;;;;;;;;;;15.30;33.08;96988.67;1782496;80;20170;-60
2021/03/30 10:33:58;;;;;;;;;;;;;;;15.30;33.52;96994.45;1781971;81;20162;-59
2021/03/30 10:36:26;;;;;;;;;;;;;;;15.60;31.53;96987.78;1782967;81;20146;-60
2021/03/30 10:39:10;;;;;;;;;;;;;;;15.74;33.97;96989.78;1782515;81;20174;-59
2021/03/30 10:41:42;;;;;;;;;;;;;;;15.99;35.10;96981.38;1782499;80;20479;-59
2021/03/30 10:44:17;;;;;;;;;;;;;;;16.10;33.78;96987.41;1782433;81;20178;-60
2021/03/30 10:46:43;;;;;;;;;;;;;;;16.28;32.56;96993.27;1782406;81;20171;-60
2021/03/30 10:49:14;;;;;;;;;;;;;;;16.24;32.40;96987.14;1782574;80;20151;-59
2021/03/30 10:51:43;;;;;;;;;;;;;;;16.19;32.75;96990.34;1782637;80;20150;-60
2021/03/30 10:54:13;;;;;;;;;;;;;;;16.07;32.92;96982.57;1782625;81;20162;-60
2021/03/30 10:56:41;;;;;;;;;;;;;;;16.32;32.78;96986.53;1782486;80;20166;-60
2021/03/30 10:59:11;;;;;;;;;;;;;;;16.62;34.01;96980.19;1783153;80;20484;-60
2021/03/30 11:01:39;;;;;;;;;;;;;;;16.73;31.91;96975.95;1782501;81;20134;-60
2021/03/30 11:04:07;;;;;;;;;;;;;;;16.84;32.32;96980.20;1782551;81;20155;-59
2021/03/30 11:06:35;;;;;;;;;;;;;;;16.63;30.77;96985.50;1779629;80;20138;-59
2021/03/30 11:09:04;;;;;;;;;;;;;;;16.68;32.22;96976.05;1777147;81;20150;-59
2021/03/30 11:11:31;;;;;;;;;;;;;;;16.86;33.13;96977.05;1777213;81;20159;-59
2021/03/30 11:13:58;;;;;;;;;;;;;;;17.41;32.95;96967.37;1777170;81;20432;-60
2021/03/30 11:16:27;;;;;;;;;;;;;;;17.85;30.85;96965.45;1776585;81;20147;-60
2021/03/30 11:18:56;;;;;;;;;;;;;;;18.05;29.83;96964.48;1777226;80;20154;-60
2021/03/30 11:21:24;;;;;;;;;;;;;;;18.07;29.33;96954.64;1777214;81;20155;-60
2021/03/30 11:24:00;;;;;;;;;;;;;;;18.63;29.61;96956.66;1777255;81;20154;-60
2021/03/30 11:26:24;;;;;;;;;;;;;;;19.19;29.82;96951.91;1776797;80;20139;-60
2021/03/30 11:28:53;;;;;;;;;;;;;;;19.37;27.87;96948.64;1777301;81;20162;-59
2021/03/30 11:34:14;;;;;;;;;;;;;;;19.45;26.03;96943.04;1777089;81;20437;-60
2021/03/30 11:36:39;;;;;;;;;;;;;;;19.51;25.75;96941.52;1775755;80;20408;-60
2021/03/30 11:39:05;;;;;;;;;;;;;;;19.32;26.77;96936.34;1777136;81;20158;-59
2021/03/30 11:41:32;;;;;;;;;;;;;;;19.03;26.38;96933.66;1776989;81;20162;-60
2021/03/30 11:43:59;;;;;;;;;;;;;;;19.20;26.93;96932.23;1777173;81;20151;-60
2021/03/30 11:46:26;;;;;;;;;;;;;;;18.80;27.30;96926.33;1776930;81;20151;-60
2021/03/30 11:48:54;;;;;;;;;;;;;;;18.14;28.66;96920.17;1776991;81;20147;-60
2021/03/30 11:51:21;;;;;;;;;;;;;;;18.32;27.99;96913.87;1777203;81;20249;-60
2021/03/30 11:53:48;;;;;;;;;;;;;;;18.33;28.25;96912.97;1777187;81;20416;-60
2021/03/30 11:56:16;;;;;;;;;;;;;;;18.20;28.80;96916.91;1757935;81;20139;-60
2021/03/30 11:58:43;;;;;;;;;;;;;;;18.18;28.33;96918.28;1777358;81;20238;-60
2021/03/30 12:01:10;;;;;;;;;;;;;;;18.35;29.85;96914.68;1776848;81;20171;-60
2021/03/30 12:03:38;;;;;;;;;;;;;;;18.70;29.46;96914.13;1777062;81;20436;-60
2021/03/30 12:06:06;;;;;;;;;;;;;;;18.93;30.47;96909.45;1778784;80;20174;-60
2021/03/30 12:08:34;;;;;;;;;;;;;;;18.97;27.96;96908.41;1785788;80;20155;-60
2021/03/30 12:11:03;;;;;;;;;;;;;;;18.97;28.15;96907.55;1785654;80;20174;-60
2021/03/30 12:13:30;;;;;;;;;;;;;;;19.03;28.32;96907.37;1785545;80;20178;-60
2021/03/30 12:15:58;;;;;;;;;;;;;;;18.67;28.08;96906.64;1785612;80;20150;-60
2021/03/30 12:18:26;;;;;;;;;;;;;;;18.24;29.08;96908.74;1785705;80;20134;-60
2021/03/30 12:20:53;;;;;;;;;;;;;;;18.36;29.34;96905.73;1785710;80;20147;-60
2021/03/30 12:23:20;;;;;;;;;;;;;;;18.25;27.65;96894.48;1785449;80;20470;-60
2021/03/30 12:25:49;;;;;;;;;;;;;;;18.10;27.26;96889.11;1785776;80;20150;-60
2021/03/30 12:28:16;;;;;;;;;;;;;;;17.87;28.31;96891.08;1785739;80;20130;-60
2021/03/30 12:30:44;;;;;;;;;;;;;;;17.82;28.45;96897.46;1785432;80;20408;-60
2021/03/30 12:33:11;;;;;;;;;;;;;;;17.62;29.56;96895.27;1785411;80;20186;-60
2021/03/30 12:35:38;;;;;;;;;;;;;;;17.55;30.47;96892.34;1785518;80;20444;-60
2021/03/30 12:38:06;;;;;;;;;;;;;;;17.47;30.06;96888.53;1785879;80;20150;-60
2021/03/30 12:40:36;;;;;;;;;;;;;;;17.40;29.48;96887.80;1785372;80;20143;-60
2021/03/30 12:43:05;;;;;;;;;;;;;;;17.04;31.28;96890.91;1785982;80;20154;-60
2021/03/30 12:45:34;;;;;;;;;;;;;;;17.14;30.33;96891.11;1785532;80;20154;-60
2021/03/30 12:48:04;;;;;;;;;;;;;;;17.13;30.14;96884.00;1785385;80;20151;-60
2021/03/30 12:50:32;;;;;;;;;;;;;;;17.17;30.39;96882.16;1785440;80;20143;-60
2021/03/30 12:53:02;;;;;;;;;;;;;;;17.39;29.97;96878.52;1785525;80;20454;-60
2021/03/30 12:55:30;;;;;;;;;;;;;;;17.55;29.42;96874.52;1785407;80;20420;-60
2021/03/30 12:57:57;;;;;;;;;;;;;;;17.66;30.27;96874.23;1785512;80;20155;-60
2021/03/30 13:00:25;;;;;;;;;;;;;;;17.64;30.14;96868.96;1785550;80;20152;-60
2021/03/30 13:02:52;;;;;;;;;;;;;;;17.61;29.89;96870.34;1785671;80;20187;-60
2021/03/30 13:05:21;;;;;;;;;;;;;;;17.71;29.27;96868.32;1785441;80;20158;-60
2021/03/30 13:07:49;;;;;;;;;;;;;;;17.59;28.80;96867.30;1785510;80;20445;-60
2021/03/30 13:10:16;;;;;;;;;;;;;;;17.53;29.05;96864.34;1785662;80;20163;-60
2021/03/30 13:12:44;;;;;;;;;;;;;;;17.53;29.09;96864.34;1785617;80;20424;-60
2021/03/30 13:15:13;;;;;;;;;;;;;;;17.46;30.17;96861.41;1782998;80;20150;-60